Time;durP1;ratioP1;P1;durP2;ratioP2;P2;SDS_P1;SDS_P2;PMS_P1;PMS_P2;Temp;Humidity;BMP_temperature;BMP_pressure;BME280_temperature;BME280_humidity;BME280_pressure;Samples;Min_cycle;Max_cycle;Signal;HPM_P1;HPM_P2
2023/03/03 00:01:26;;;;;;;16.05;10.68;;;;;;;6.77;100.00;100387.56;5045241;28;20041;-81
2023/03/03 00:03:53;;;;;;;16.63;9.82;;;;;;;6.66;100.00;100391.13;5022159;28;20496;-81
2023/03/03 00:06:23;;;;;;;13.68;9.95;;;;;;;6.45;100.00;100387.78;5046938;28;20095;-81
2023/03/03 00:08:48;;;;;;;13.40;9.88;;;;;;;6.38;100.00;100393.56;5030805;28;20037;-81
2023/03/03 00:11:14;;;;;;;14.57;10.15;;;;;;;6.62;100.00;100394.16;5026662;28;20391;-81
2023/03/03 00:13:49;;;;;;;14.95;10.35;;;;;;;6.82;100.00;100395.81;5051109;28;20052;-80
2023/03/03 00:16:31;;;;;;;14.85;9.52;;;;;;;6.70;100.00;100392.53;5042405;28;20067;-82
2023/03/03 00:18:57;;;;;;;11.98;8.27;;;;;;;6.68;100.00;100394.44;5045744;28;20057;-83
2023/03/03 00:21:41;;;;;;;11.05;8.65;;;;;;;6.82;100.00;100395.81;5043610;28;20049;-82
2023/03/03 00:24:12;;;;;;;16.55;10.48;;;;;;;6.47;100.00;100402.34;5050222;28;20045;-81
2023/03/03 00:26:41;;;;;;;12.05;9.10;;;;;;;6.48;100.00;100398.78;5050348;28;20044;-81
2023/03/03 00:29:35;;;;;;;12.10;9.75;;;;;;;6.57;100.00;100405.00;5027979;28;20368;-81
2023/03/03 00:32:20;;;;;;;12.65;9.00;;;;;;;6.41;100.00;100398.50;5052584;28;20037;-82
2023/03/03 00:34:46;;;;;;;12.98;9.43;;;;;;;6.47;100.00;100391.94;5054070;28;20068;-82
2023/03/03 00:37:22;;;;;;;10.65;8.25;;;;;;;6.41;100.00;100395.88;5050262;28;20087;-84
2023/03/03 00:39:48;;;;;;;11.50;9.10;;;;;;;6.32;100.00;100394.09;5044955;28;20053;-83
2023/03/03 00:42:15;;;;;;;9.40;8.15;;;;;;;6.39;100.00;100399.59;5033076;28;20049;-82
2023/03/03 00:44:48;;;;;;;10.40;7.32;;;;;;;6.43;100.00;100396.56;5047250;28;20065;-81
2023/03/03 00:47:25;;;;;;;9.98;7.68;;;;;;;6.45;100.00;100395.63;5028376;28;20478;-82
2023/03/03 00:49:53;;;;;;;9.85;7.18;;;;;;;6.31;100.00;100405.47;5024686;28;20051;-82
2023/03/03 00:52:19;;;;;;;9.02;6.60;;;;;;;6.07;100.00;100411.03;5024095;28;20473;-82
2023/03/03 00:54:45;;;;;;;11.57;6.57;;;;;;;6.30;100.00;100401.22;5026403;28;20037;-82
2023/03/03 00:57:11;;;;;;;7.93;6.80;;;;;;;6.42;100.00;100410.56;5025189;28;20047;-82
2023/03/03 00:59:38;;;;;;;10.20;8.02;;;;;;;5.99;100.00;100414.25;5043172;28;20041;-82
2023/03/03 01:02:04;;;;;;;12.38;7.78;;;;;;;5.88;100.00;100411.72;5033303;28;20037;-82
2023/03/03 01:04:30;;;;;;;12.80;8.30;;;;;;;6.18;100.00;100418.72;5043666;28;20540;-81
2023/03/03 01:06:55;;;;;;;9.95;8.23;;;;;;;6.11;100.00;100418.44;5025500;28;20120;-82
2023/03/03 01:09:21;;;;;;;11.35;9.07;;;;;;;5.91;100.00;100421.91;5027300;28;20148;-81
2023/03/03 01:11:48;;;;;;;12.20;9.52;;;;;;;5.90;100.00;100409.81;5028097;28;20402;-82
2023/03/03 01:14:13;;;;;;;12.95;9.68;;;;;;;6.10;100.00;100421.19;5046209;28;20049;-82
2023/03/03 01:16:40;;;;;;;11.68;8.98;;;;;;;5.97;100.00;100421.38;5043362;28;20132;-82
2023/03/03 01:19:06;;;;;;;12.15;9.15;;;;;;;6.15;100.00;100424.22;5027588;28;20037;-82
2023/03/03 01:21:32;;;;;;;10.38;8.38;;;;;;;6.30;100.00;100422.09;5024584;28;20034;-82
2023/03/03 01:23:58;;;;;;;11.43;8.40;;;;;;;6.06;100.00;100415.38;5047627;28;20082;-82
2023/03/03 01:26:23;;;;;;;11.63;8.05;;;;;;;5.83;100.00;100420.75;5031595;28;20035;-82
2023/03/03 01:28:49;;;;;;;8.35;7.20;;;;;;;5.96;100.00;100419.72;5046764;28;20036;-82
2023/03/03 01:31:14;;;;;;;8.98;7.13;;;;;;;5.79;100.00;100419.34;5027133;28;20044;-82
2023/03/03 01:33:40;;;;;;;9.45;6.70;;;;;;;5.91;100.00;100427.91;5028077;28;20112;-83
2023/03/03 01:36:06;;;;;;;11.02;7.13;;;;;;;5.74;100.00;100426.75;5024001;28;20091;-81
2023/03/03 01:38:35;;;;;;;7.82;6.60;;;;;;;5.78;100.00;100412.50;5025005;28;20126;-82
2023/03/03 01:41:01;;;;;;;11.23;6.72;;;;;;;5.86;100.00;100417.88;5042711;28;20055;-82
2023/03/03 01:43:30;;;;;;;7.47;6.57;;;;;;;5.60;100.00;100419.25;5024767;28;20518;-82
2023/03/03 01:45:56;;;;;;;8.55;6.75;;;;;;;5.71;100.00;100421.78;5027591;28;20448;-82
2023/03/03 01:48:33;;;;;;;9.02;7.40;;;;;;;5.85;100.00;100418.84;5027675;28;20036;-82
2023/03/03 01:51:12;;;;;;;9.82;7.05;;;;;;;5.80;100.00;100421.00;5041263;28;20041;-82
2023/03/03 01:53:45;;;;;;;8.82;6.53;;;;;;;5.60;100.00;100421.84;5024647;28;20064;-81
2023/03/03 01:56:11;;;;;;;10.33;6.97;;;;;;;5.42;100.00;100422.41;5019488;28;20451;-82
2023/03/03 01:58:41;;;;;;;9.88;7.70;;;;;;;5.78;100.00;100420.31;5043538;28;20064;-82
2023/03/03 02:01:13;;;;;;;12.30;8.75;;;;;;;5.70;100.00;100420.16;5018874;28;20037;-83
2023/03/03 02:03:39;;;;;;;11.02;8.20;;;;;;;5.79;100.00;100424.56;5027896;28;20067;-83
2023/03/03 02:06:12;;;;;;;11.93;8.35;;;;;;;5.94;100.00;100426.84;5049619;28;20040;-83
2023/03/03 02:09:03;;;;;;;13.63;8.40;;;;;;;5.75;100.00;100436.22;5026256;28;21923;-83
2023/03/03 02:11:31;;;;;;;16.45;10.45;;;;;;;5.45;100.00;100440.41;5014574;28;20075;-83
2023/03/03 02:13:56;;;;;;;15.82;9.90;;;;;;;5.54;100.00;100425.78;5027666;28;20060;-82
2023/03/03 02:16:22;;;;;;;16.08;10.55;;;;;;;5.65;100.00;100428.34;5023795;28;20037;-84
2023/03/03 02:18:48;;;;;;;17.50;11.55;;;;;;;5.40;100.00;100430.38;5019289;28;20041;-83
2023/03/03 02:21:19;;;;;;;17.10;10.88;;;;;;;5.81;100.00;100427.06;5025678;28;20048;-82
2023/03/03 02:24:09;;;;;;;18.65;11.05;;;;;;;5.50;100.00;100427.84;5044809;28;20043;-82
2023/03/03 02:26:39;;;;;;;17.55;12.20;;;;;;;5.31;100.00;100422.50;5027425;28;20059;-81
2023/03/03 02:29:07;;;;;;;20.23;13.60;;;;;;;5.38;100.00;100427.03;5028306;28;20085;-82
2023/03/03 02:31:33;;;;;;;18.38;11.60;;;;;;;5.58;100.00;100415.00;5023099;28;20049;-82
2023/03/03 02:33:59;;;;;;;22.77;13.70;;;;;;;5.60;100.00;100425.31;5020382;28;20049;-83
2023/03/03 02:36:33;;;;;;;23.38;14.20;;;;;;;5.53;100.00;100414.56;5046794;28;20037;-82
2023/03/03 02:38:59;;;;;;;24.30;14.00;;;;;;;5.60;100.00;100408.84;5023994;28;20166;-82
2023/03/03 02:41:31;;;;;;;27.05;15.20;;;;;;;5.67;100.00;100407.34;5022596;28;20057;-83
2023/03/03 02:44:07;;;;;;;27.70;15.07;;;;;;;5.85;100.00;100412.81;5024589;28;20040;-82
2023/03/03 02:46:35;;;;;;;21.88;13.73;;;;;;;5.63;100.00;100413.78;5026428;28;20041;-82
2023/03/03 02:49:02;;;;;;;20.92;12.50;;;;;;;5.48;100.00;100413.28;5026510;28;20053;-82
2023/03/03 02:51:27;;;;;;;19.17;11.55;;;;;;;5.36;100.00;100408.13;5025207;28;20160;-82
2023/03/03 02:53:53;;;;;;;17.75;10.85;;;;;;;5.55;100.00;100414.41;5027676;28;20624;-81
2023/03/03 02:56:19;;;;;;;18.65;11.35;;;;;;;5.46;100.00;100413.41;5026535;28;20060;-82
2023/03/03 02:58:44;;;;;;;17.55;10.60;;;;;;;5.47;100.00;100409.84;5028147;28;20041;-82
2023/03/03 03:01:10;;;;;;;13.38;9.32;;;;;;;5.41;100.00;100410.34;5027291;28;20037;-82
2023/03/03 03:03:36;;;;;;;14.85;9.98;;;;;;;5.43;100.00;100416.25;5025525;28;20491;-81
2023/03/03 03:06:02;;;;;;;14.43;9.13;;;;;;;5.73;100.00;100412.06;5043755;28;20044;-84
2023/03/03 03:08:27;;;;;;;19.33;10.95;;;;;;;5.79;100.00;100408.09;5030667;28;20033;-83
2023/03/03 03:10:55;;;;;;;18.52;10.48;;;;;;;5.74;100.00;100416.31;5025344;28;20033;-82
2023/03/03 03:13:22;;;;;;;16.30;10.02;;;;;;;5.47;100.00;100404.63;5023346;28;20033;-82
2023/03/03 03:15:47;;;;;;;16.30;10.00;;;;;;;5.52;100.00;100399.88;5045914;28;20124;-83
2023/03/03 03:18:14;;;;;;;16.88;10.27;;;;;;;5.63;100.00;100405.97;5043811;28;20065;-83
2023/03/03 03:20:42;;;;;;;14.55;9.85;;;;;;;5.65;100.00;100406.66;5027630;28;20071;-83
2023/03/03 03:23:08;;;;;;;15.32;9.85;;;;;;;5.57;100.00;100405.53;5021024;28;20042;-83
2023/03/03 03:25:36;;;;;;;16.35;11.02;;;;;;;5.37;100.00;100403.75;5020382;28;20112;-82
2023/03/03 03:28:02;;;;;;;19.75;11.07;;;;;;;5.63;100.00;100398.16;5028909;28;20118;-82
2023/03/03 03:30:27;;;;;;;19.77;12.52;;;;;;;5.39;100.00;100392.25;5022710;28;20127;-82
2023/03/03 03:32:53;;;;;;;19.58;11.93;;;;;;;5.40;100.00;100400.88;5028565;28;20478;-81
2023/03/03 03:35:18;;;;;;;20.25;11.65;;;;;;;5.63;100.00;100398.16;5022454;28;20060;-82
2023/03/03 03:37:44;;;;;;;21.83;13.85;;;;;;;5.34;100.00;100398.81;5046018;28;20052;-82
2023/03/03 03:40:11;;;;;;;21.60;13.30;;;;;;;5.48;100.00;100395.06;5029913;28;20064;-81
2023/03/03 03:42:38;;;;;;;18.17;11.80;;;;;;;5.65;100.00;100401.44;5023607;28;20053;-81
2023/03/03 03:45:04;;;;;;;20.65;13.02;;;;;;;5.52;100.00;100396.44;5022321;28;20037;-82
2023/03/03 03:47:30;;;;;;;25.25;13.65;;;;;;;5.50;100.00;100401.78;5025370;28;20069;-81
2023/03/03 03:49:55;;;;;;;25.25;13.25;;;;;;;5.56;100.00;100392.63;5023988;28;20067;-83
2023/03/03 03:52:21;;;;;;;31.63;15.73;;;;;;;5.45;100.00;100398.72;5023960;28;20104;-83
2023/03/03 03:54:47;;;;;;;25.50;15.48;;;;;;;5.55;100.00;100396.19;5021228;28;20061;-83
2023/03/03 03:57:13;;;;;;;27.40;15.88;;;;;;;5.58;100.00;100394.16;5022299;28;20459;-81
2023/03/03 03:59:38;;;;;;;30.42;16.83;;;;;;;5.57;100.00;100394.28;5022760;28;20052;-83
2023/03/03 04:02:04;;;;;;;31.70;17.50;;;;;;;5.75;100.00;100406.72;5017115;28;20030;-82
2023/03/03 04:04:29;;;;;;;33.38;18.10;;;;;;;5.68;100.00;100393.38;5021072;28;20037;-81
2023/03/03 04:06:55;;;;;;;32.75;17.98;;;;;;;5.51;100.00;100389.59;5022082;28;20030;-81
2023/03/03 04:09:20;;;;;;;31.10;17.02;;;;;;;5.48;100.00;100389.84;5024168;28;20034;-82
2023/03/03 04:11:46;;;;;;;30.67;17.85;;;;;;;5.68;100.00;100388.16;5023167;28;20045;-81
2023/03/03 04:14:11;;;;;;;30.50;16.27;;;;;;;5.77;100.00;100387.41;5025550;28;20044;-81
2023/03/03 04:16:37;;;;;;;28.65;16.27;;;;;;;5.81;100.00;100393.19;5027406;28;20033;-82
2023/03/03 04:19:03;;;;;;;30.35;15.25;;;;;;;5.53;100.00;100393.72;5027205;28;20034;-83
2023/03/03 04:21:28;;;;;;;27.67;15.45;;;;;;;5.65;100.00;100393.63;5027477;28;20037;-82
2023/03/03 04:23:54;;;;;;;24.85;14.23;;;;;;;5.15;100.00;100400.31;5030270;28;20030;-82
2023/03/03 04:26:19;;;;;;;24.33;14.23;;;;;;;5.53;100.00;100398.94;5038843;28;20101;-82
2023/03/03 04:28:45;;;;;;;23.00;13.55;;;;;;;5.62;100.00;100391.28;5032741;28;20540;-82
2023/03/03 04:31:10;;;;;;;24.95;14.20;;;;;;;5.22;100.00;100396.25;5028113;28;20049;-82
2023/03/03 04:33:36;;;;;;;25.25;14.27;;;;;;;5.37;100.00;100401.16;5028204;28;20041;-81
2023/03/03 04:36:02;;;;;;;20.95;11.85;;;;;;;5.17;100.00;100398.41;5028174;28;20399;-83
2023/03/03 04:38:27;;;;;;;26.13;13.75;;;;;;;5.07;100.00;100402.69;5028480;28;20057;-81
2023/03/03 04:40:53;;;;;;;22.60;12.98;;;;;;;5.24;100.00;100399.53;5027560;28;20594;-82
2023/03/03 04:43:19;;;;;;;21.20;12.48;;;;;;;5.40;100.00;100398.28;5049846;28;20372;-82
2023/03/03 04:45:50;;;;;;;21.75;13.13;;;;;;;5.56;100.00;100398.66;5026675;28;20053;-82
2023/03/03 04:48:16;;;;;;;23.27;12.73;;;;;;;5.43;100.00;100383.25;5046353;28;20041;-82
2023/03/03 04:50:42;;;;;;;22.13;11.90;;;;;;;5.43;100.00;100409.28;5023895;28;20398;-82
2023/03/03 04:53:08;;;;;;;24.48;12.43;;;;;;;5.45;100.00;100390.91;5028887;28;20530;-82
2023/03/03 04:55:37;;;;;;;20.52;11.18;;;;;;;5.42;100.00;100398.97;5052637;28;20043;-82
2023/03/03 04:58:03;;;;;;;22.15;11.20;;;;;;;5.55;100.00;100399.63;5052631;28;20111;-81
2023/03/03 05:00:29;;;;;;;24.00;12.32;;;;;;;5.41;100.00;100392.13;5027349;28;20496;-82
2023/03/03 05:02:55;;;;;;;18.45;11.10;;;;;;;5.37;100.00;100396.75;5051023;28;20065;-83
2023/03/03 05:05:20;;;;;;;19.77;11.80;;;;;;;5.53;100.00;100388.50;5030966;28;20094;-82
2023/03/03 05:07:46;;;;;;;21.13;12.10;;;;;;;5.60;100.00;100407.06;5029516;28;20140;-81
2023/03/03 05:10:11;;;;;;;20.45;11.50;;;;;;;5.38;100.00;100405.41;5031673;28;20144;-82
2023/03/03 05:12:37;;;;;;;23.52;12.25;;;;;;;5.43;100.00;100405.84;5045968;28;20047;-81
2023/03/03 05:15:04;;;;;;;19.25;11.57;;;;;;;4.82;100.00;100399.47;5029629;28;20098;-82
2023/03/03 05:17:29;;;;;;;18.08;10.75;;;;;;;5.15;100.00;100406.34;5024728;28;20038;-82
2023/03/03 05:19:56;;;;;;;15.82;9.90;;;;;;;5.16;100.00;100407.16;5051061;28;20052;-81
2023/03/03 05:22:22;;;;;;;16.27;10.40;;;;;;;5.29;100.00;100407.78;5030133;28;20135;-82
2023/03/03 05:24:48;;;;;;;16.02;10.13;;;;;;;5.16;100.00;100399.38;5031977;28;20049;-81
2023/03/03 05:27:17;;;;;;;13.40;8.60;;;;;;;5.15;100.00;100395.09;5029480;28;20045;-82
2023/03/03 05:29:43;;;;;;;12.25;8.40;;;;;;;5.31;100.00;100399.88;5026893;28;20124;-82
2023/03/03 05:32:08;;;;;;;11.25;7.72;;;;;;;5.32;100.00;100385.91;5042474;28;20447;-81
2023/03/03 05:34:34;;;;;;;9.75;5.90;;;;;;;5.31;100.00;100393.84;5048985;28;20033;-81
2023/03/03 05:36:59;;;;;;;6.45;4.97;;;;;;;5.18;100.00;100392.25;5029151;28;20036;-81
2023/03/03 05:39:25;;;;;;;6.47;4.85;;;;;;;4.99;100.00;100379.91;5049317;28;20039;-82
2023/03/03 05:41:50;;;;;;;5.97;4.20;;;;;;;5.13;100.00;100397.81;5043973;28;20044;-82
2023/03/03 05:44:16;;;;;;;7.82;5.30;;;;;;;5.31;100.00;100404.28;5028018;28;20060;-81
2023/03/03 05:46:41;;;;;;;7.15;5.35;;;;;;;5.44;100.00;100399.69;5045067;28;20449;-82
2023/03/03 05:49:07;;;;;;;6.85;4.63;;;;;;;5.35;100.00;100390.03;5031177;28;20045;-82
2023/03/03 05:51:33;;;;;;;7.38;4.85;;;;;;;5.09;100.00;100396.44;5028275;28;20040;-83
2023/03/03 05:53:58;;;;;;;7.32;5.50;;;;;;;5.28;100.00;100390.53;5043158;28;20437;-83
2023/03/03 05:56:24;;;;;;;7.10;4.80;;;;;;;5.43;100.00;100385.00;5021083;28;20175;-83
2023/03/03 05:58:49;;;;;;;6.35;4.70;;;;;;;5.47;100.00;100394.22;5030227;28;20444;-82
2023/03/03 06:01:15;;;;;;;8.50;5.32;;;;;;;5.56;100.00;100392.63;5027116;28;20044;-82
2023/03/03 06:03:40;;;;;;;8.40;5.70;;;;;;;5.38;100.00;100389.78;5049328;28;20045;-85
2023/03/03 06:06:07;;;;;;;9.52;6.35;;;;;;;5.36;100.00;100402.91;5053404;28;20040;-85
2023/03/03 06:08:35;;;;;;;8.85;6.15;;;;;;;5.10;100.00;100400.69;5031144;28;20063;-85
2023/03/03 06:11:01;;;;;;;10.93;6.72;;;;;;;5.24;100.00;100402.16;5030229;28;20071;-85
2023/03/03 06:13:26;;;;;;;9.77;6.40;;;;;;;5.35;100.00;100393.44;5028623;28;20044;-85
2023/03/03 06:15:52;;;;;;;8.98;5.72;;;;;;;5.33;100.00;100399.75;5051186;28;20041;-85
2023/03/03 06:18:17;;;;;;;6.63;4.60;;;;;;;5.26;100.00;100397.63;5048954;28;20040;-86
2023/03/03 06:20:43;;;;;;;7.30;4.07;;;;;;;5.36;100.00;100394.28;5055816;28;20108;-86
2023/03/03 06:23:09;;;;;;;6.90;4.90;;;;;;;5.27;100.00;100399.28;5029416;28;20445;-85
2023/03/03 06:25:34;;;;;;;5.70;3.40;;;;;;;5.29;100.00;100405.19;5035417;28;20034;-84
2023/03/03 06:28:01;;;;;;;4.95;3.10;;;;;;;5.21;100.00;100398.97;5053218;28;20048;-85
2023/03/03 06:30:27;;;;;;;6.75;2.80;;;;;;;5.17;100.00;100400.16;5050916;28;20041;-85
2023/03/03 06:32:53;;;;;;;5.15;2.90;;;;;;;5.28;100.00;100400.13;5046633;28;21617;-85
2023/03/03 06:35:19;;;;;;;6.65;3.63;;;;;;;5.29;100.00;100405.19;5045998;28;20049;-84
2023/03/03 06:37:45;;;;;;;4.57;3.25;;;;;;;5.16;100.00;100407.16;5046770;28;20638;-86
2023/03/03 06:40:11;;;;;;;4.60;2.95;;;;;;;5.21;100.00;100399.81;5047011;28;20037;-86
2023/03/03 06:42:37;;;;;;;4.50;2.70;;;;;;;4.98;100.00;100405.09;5034399;28;20076;-85
2023/03/03 06:45:03;;;;;;;4.93;2.60;;;;;;;5.23;100.00;100415.31;5033871;28;20037;-86
2023/03/03 06:47:28;;;;;;;3.72;2.63;;;;;;;5.09;100.00;100424.22;5028327;28;20049;-85
2023/03/03 06:49:54;;;;;;;3.35;2.47;;;;;;;5.22;100.00;100411.88;5034472;28;20035;-85
2023/03/03 06:52:23;;;;;;;4.18;2.38;;;;;;;5.17;100.00;100408.81;5035217;28;20055;-84
2023/03/03 06:54:52;;;;;;;7.80;2.60;;;;;;;5.04;100.00;100419.41;5029487;28;20049;-83
2023/03/03 06:57:21;;;;;;;4.43;1.90;;;;;;;5.18;100.00;100430.47;5047664;28;20034;-84
2023/03/03 06:59:50;;;;;;;2.85;2.33;;;;;;;5.36;100.00;100422.94;5040547;28;20036;-84
2023/03/03 07:02:18;;;;;;;4.70;2.40;;;;;;;5.33;100.00;100429.22;5049589;28;20040;-83
2023/03/03 07:04:45;;;;;;;3.80;2.10;;;;;;;5.22;100.00;100432.69;5047192;28;20028;-83
2023/03/03 07:07:25;;;;;;;3.22;2.72;;;;;;;5.20;100.00;100442.41;5048334;28;20491;-84
2023/03/03 07:09:56;;;;;;;1.70;1.60;;;;;;;5.12;100.00;100432.63;5053845;28;20105;-85
2023/03/03 07:12:39;;;;;;;2.45;1.90;;;;;;;5.10;100.00;100446.69;5052619;28;20033;-85
2023/03/03 07:15:15;;;;;;;2.88;1.90;;;;;;;5.25;100.00;100452.47;5027113;28;20042;-80
2023/03/03 07:17:47;;;;;;;2.30;1.80;;;;;;;5.03;100.00;100445.53;5046146;28;20442;-83
2023/03/03 07:20:28;;;;;;;4.03;2.10;;;;;;;5.13;100.00;100452.47;5039202;28;20045;-83
2023/03/03 07:22:54;;;;;;;3.88;1.83;;;;;;;5.11;100.00;100445.75;5041958;28;20037;-85
2023/03/03 07:25:28;;;;;;;9.05;3.30;;;;;;;5.11;100.00;100457.00;5026240;28;20056;-83
2023/03/03 07:27:59;;;;;;;3.28;1.77;;;;;;;5.01;100.00;100469.06;5044240;28;20095;-82
2023/03/03 07:30:27;;;;;;;2.35;1.85;;;;;;;5.25;100.00;100474.09;5022566;28;20045;-84
2023/03/03 07:32:56;;;;;;;2.30;1.70;;;;;;;4.93;100.00;100469.72;5044866;28;20047;-84
2023/03/03 07:35:35;;;;;;;3.63;1.90;;;;;;;5.15;100.00;100468.00;5050599;28;20048;-86
2023/03/03 07:38:15;;;;;;;2.45;1.88;;;;;;;5.18;100.00;100454.72;5050704;28;20030;-86
2023/03/03 07:40:48;;;;;;;4.85;2.03;;;;;;;5.53;100.00;100460.59;5028712;28;20103;-86
2023/03/03 07:43:30;;;;;;;3.15;1.48;;;;;;;5.63;100.00;100473.69;5021293;28;20140;-86
2023/03/03 07:46:33;;;;;;;2.05;1.60;;;;;;;5.68;100.00;100472.38;5022265;28;20041;-86
2023/03/03 07:48:59;;;;;;;2.47;1.67;;;;;;;5.64;100.00;100473.56;5025760;28;20053;-86
2023/03/03 07:51:38;;;;;;;2.30;1.75;;;;;;;5.72;100.00;100471.16;5020226;28;20041;-86
2023/03/03 07:54:13;;;;;;;3.50;1.88;;;;;;;5.65;100.00;100477.00;5020105;28;20112;-86
2023/03/03 07:56:41;;;;;;;2.25;1.88;;;;;;;5.30;100.00;100463.31;5024873;28;20057;-87
2023/03/03 07:59:21;;;;;;;3.20;1.63;;;;;;;5.55;100.00;100453.47;5022504;28;20045;-84
2023/03/03 08:01:54;;;;;;;2.75;1.63;;;;;;;5.52;100.00;100475.41;5026474;28;20045;-86
2023/03/03 08:04:21;;;;;;;8.02;2.55;;;;;;;5.55;100.00;100479.53;5023021;28;20256;-85
2023/03/03 08:06:49;;;;;;;3.67;2.15;;;;;;;5.66;100.00;100476.03;5026039;28;20048;-84
2023/03/03 08:09:18;;;;;;;6.88;2.72;;;;;;;5.64;100.00;100475.34;5029585;28;20390;-86
2023/03/03 08:11:48;;;;;;;3.53;2.53;;;;;;;5.70;100.00;100472.25;5025921;28;20045;-87
2023/03/03 08:14:24;;;;;;;5.55;2.60;;;;;;;5.60;100.00;100476.56;5027483;28;20484;-85
2023/03/03 08:16:55;;;;;;;4.00;2.30;;;;;;;5.86;100.00;100472.59;5033716;28;20108;-83
2023/03/03 08:19:21;;;;;;;8.25;3.60;;;;;;;5.79;100.00;100466.25;5025546;28;20045;-84
2023/03/03 08:21:58;;;;;;;4.88;3.20;;;;;;;5.71;100.00;100459.06;5025315;28;20049;-82
2023/03/03 08:24:24;;;;;;;5.63;3.55;;;;;;;5.64;100.00;100478.78;5025540;28;20073;-83
2023/03/03 08:26:49;;;;;;;7.38;3.40;;;;;;;5.46;100.00;100491.53;5023459;28;20045;-82
2023/03/03 08:29:15;;;;;;;6.38;4.20;;;;;;;5.53;100.00;100487.47;5028257;28;20042;-84
2023/03/03 08:31:41;;;;;;;7.97;5.13;;;;;;;5.32;100.00;100497.03;5034612;28;20176;-82
2023/03/03 08:34:06;;;;;;;7.65;4.70;;;;;;;5.79;100.00;100483.66;5023004;28;20044;-85
2023/03/03 08:36:35;;;;;;;8.38;5.28;;;;;;;6.07;100.00;100490.03;5038978;28;20038;-84
2023/03/03 08:39:04;;;;;;;8.57;6.15;;;;;;;5.98;100.00;100498.59;5037707;28;20033;-82
2023/03/03 08:41:29;;;;;;;12.95;6.70;;;;;;;5.83;100.00;100498.91;5043766;28;20502;-83
2023/03/03 08:43:55;;;;;;;12.27;7.68;;;;;;;5.64;100.00;100506.59;5031732;28;20048;-83
2023/03/03 08:46:21;;;;;;;9.98;7.30;;;;;;;5.68;100.00;100506.22;5034346;28;20036;-84
2023/03/03 08:48:46;;;;;;;11.95;7.50;;;;;;;5.49;100.00;100501.69;5052412;28;20056;-82
2023/03/03 08:51:12;;;;;;;12.60;7.93;;;;;;;5.76;100.00;100497.78;5045312;28;20045;-82
2023/03/03 08:53:38;;;;;;;13.25;7.63;;;;;;;6.05;100.00;100507.59;5050903;28;20025;-82
2023/03/03 08:56:05;;;;;;;10.00;7.47;;;;;;;5.68;100.00;100508.00;5050018;28;20037;-82
2023/03/03 08:58:31;;;;;;;12.15;8.07;;;;;;;5.69;100.00;100509.66;5045137;28;20041;-82
2023/03/03 09:00:58;;;;;;;10.10;7.05;;;;;;;5.70;100.00;100508.72;5048450;28;20112;-85
2023/03/03 09:03:26;;;;;;;12.48;7.53;;;;;;;6.03;100.00;100509.50;5050172;28;20483;-84
2023/03/03 09:05:52;;;;;;;9.48;6.53;;;;;;;5.71;100.00;100516.41;5028017;28;20041;-84
2023/03/03 09:08:17;;;;;;;8.90;5.75;;;;;;;5.54;100.00;100512.59;5027279;28;20086;-83
2023/03/03 09:10:43;;;;;;;13.27;6.88;;;;;;;5.92;100.00;100509.56;5047106;28;20075;-85
2023/03/03 09:13:15;;;;;;;10.10;7.28;;;;;;;6.60;100.00;100521.31;5046570;28;20049;-85
2023/03/03 09:15:41;;;;;;;11.63;6.97;;;;;;;6.74;100.00;100517.50;5032854;28;20171;-85
2023/03/03 09:18:09;;;;;;;8.40;5.65;;;;;;;6.47;100.00;100518.91;5047000;28;20079;-83
2023/03/03 09:20:38;;;;;;;9.77;5.72;;;;;;;7.24;100.00;100520.06;5021944;28;20056;-83
2023/03/03 09:23:16;;;;;;;8.32;5.22;;;;;;;7.07;100.00;100523.34;5028566;28;20133;-83
2023/03/03 09:25:42;;;;;;;7.13;4.50;;;;;;;6.18;100.00;100522.22;5040096;28;20041;-83
2023/03/03 09:28:30;;;;;;;10.32;4.75;;;;;;;6.55;100.00;100524.31;5048435;28;20030;-83
2023/03/03 09:31:01;;;;;;;9.38;5.28;;;;;;;6.27;100.00;100522.25;5047588;28;20045;-83
2023/03/03 09:33:28;;;;;;;35.42;7.35;;;;;;;6.18;100.00;100527.41;5027910;28;20044;-83
2023/03/03 09:36:20;;;;;;;9.30;6.30;;;;;;;6.22;100.00;100523.59;5045698;28;20037;-83
2023/03/03 09:38:46;;;;;;;10.65;6.50;;;;;;;6.13;100.00;100522.59;5043247;28;20041;-83
2023/03/03 09:41:23;;;;;;;14.55;7.88;;;;;;;6.05;100.00;100538.88;5023507;28;20123;-83
2023/03/03 09:44:00;;;;;;;8.65;6.28;;;;;;;6.13;100.00;100536.47;5009495;28;20052;-83
2023/03/03 09:47:04;;;;;;;12.40;6.00;;;;;;;5.90;100.00;100534.91;5017440;28;20042;-83
2023/03/03 09:49:48;;;;;;;8.13;6.07;;;;;;;6.37;100.00;100530.13;5013913;28;20101;-85
2023/03/03 09:52:26;;;;;;;8.10;5.53;;;;;;;5.98;100.00;100542.91;5009552;28;20028;-84
2023/03/03 09:54:51;;;;;;;8.50;5.90;;;;;;;5.76;100.00;100543.84;5008708;28;20045;-87
2023/03/03 09:57:28;;;;;;;34.70;7.38;;;;;;;6.34;100.00;100538.22;5018452;28;20041;-86
2023/03/03 10:00:18;;;;;;;20.25;6.35;;;;;;;6.42;100.00;100540.19;5020126;28;20042;-85
2023/03/03 10:03:13;;;;;;;39.55;8.13;;;;;;;6.59;100.00;100538.72;5017278;28;20094;-86
2023/03/03 10:06:07;;;;;;;6.20;3.92;;;;;;;6.37;100.00;100542.34;5018972;28;20050;-87
2023/03/03 10:08:46;;;;;;;;;;;;;;;6.36;100.00;100546.75;5018150;28;20052;-86
2023/03/03 10:11:18;;;;;;;4.10;3.00;;;;;;;6.26;100.00;100548.44;5004695;28;19914;-85
2023/03/03 10:13:56;;;;;;;5.60;3.78;;;;;;;6.62;100.00;100548.91;5018252;28;20073;-84
2023/03/03 10:16:49;;;;;;;6.30;3.22;;;;;;;6.67;100.00;100544.09;5016272;28;20069;-85
2023/03/03 10:19:45;;;;;;;4.15;2.50;;;;;;;6.81;100.00;100549.94;5014817;28;20388;-85
2023/03/03 10:22:30;;;;;;;3.35;2.20;;;;;;;7.04;100.00;100550.56;5013707;28;20097;-85
2023/03/03 10:25:23;;;;;;;3.50;2.63;;;;;;;7.22;100.00;100542.88;5011590;28;20145;-86
2023/03/03 10:28:09;;;;;;;6.50;3.17;;;;;;;7.31;100.00;100556.09;5017514;28;20045;-85
2023/03/03 10:30:52;;;;;;;10.95;4.30;;;;;;;7.64;100.00;100548.81;5017969;28;20030;-85
2023/03/03 10:33:45;;;;;;;9.63;5.43;;;;;;;7.92;100.00;100539.31;5019210;28;20068;-86
2023/03/03 10:36:26;;;;;;;8.93;4.70;;;;;;;7.54;100.00;100549.66;5010150;28;20042;-84
2023/03/03 10:39:17;;;;;;;3.95;3.47;;;;;;;7.70;100.00;100550.91;5016234;28;20081;-85
2023/03/03 10:41:49;;;;;;;6.35;2.88;;;;;;;7.58;100.00;100545.00;5012906;28;20065;-81
2023/03/03 10:44:24;;;;;;;7.63;3.05;;;;;;;7.93;100.00;100542.75;5018049;28;20116;-85
2023/03/03 10:47:01;;;;;;;4.18;3.00;;;;;;;7.90;100.00;100548.28;5019086;28;20044;-86
2023/03/03 10:49:30;;;;;;;6.50;2.83;;;;;;;7.90;100.00;100545.66;5019792;28;20439;-85
2023/03/03 10:51:58;;;;;;;5.97;4.32;;;;;;;8.17;100.00;100546.69;4981132;28;20046;-85
2023/03/03 10:54:30;;;;;;;5.53;3.40;;;;;;;8.33;100.00;100552.16;5016266;28;20042;-86
2023/03/03 10:57:14;;;;;;;5.70;3.20;;;;;;;8.34;100.00;100552.97;5017323;28;20516;-85
2023/03/03 11:00:21;;;;;;;4.47;3.38;;;;;;;8.63;100.00;100552.91;4989859;28;20042;-86
2023/03/03 11:02:56;;;;;;;4.90;3.30;;;;;;;9.00;100.00;100535.53;4984337;28;20183;-84
2023/03/03 11:05:47;;;;;;;5.43;2.95;;;;;;;8.68;100.00;100550.69;5016970;28;20480;-85
2023/03/03 11:08:26;;;;;;;8.25;3.97;;;;;;;8.75;100.00;100550.13;5018211;28;20439;-84
2023/03/03 11:11:13;;;;;;;7.25;3.28;;;;;;;8.36;100.00;100556.31;5018455;28;20046;-85
2023/03/03 11:14:10;;;;;;;5.55;3.00;;;;;;;8.37;100.00;100532.59;5003052;28;20077;-85
2023/03/03 11:16:49;;;;;;;9.20;3.30;;;;;;;7.83;100.00;100546.19;5017922;28;20041;-85
2023/03/03 11:19:45;;;;;;;4.78;3.30;;;;;;;8.42;100.00;100546.06;5016374;28;20038;-85
2023/03/03 11:22:27;;;;;;;9.48;3.45;;;;;;;8.32;100.00;100544.44;5018202;28;20491;-85
2023/03/03 11:25:04;;;;;;;3.75;2.95;;;;;;;8.24;100.00;100543.38;5016506;28;20558;-85
2023/03/03 11:27:50;;;;;;;6.70;2.95;;;;;;;8.00;100.00;100554.31;5017948;28;20574;-86
2023/03/03 11:30:54;;;;;;;7.05;3.30;;;;;;;8.18;100.00;100564.88;5016435;28;20403;-83
2023/03/03 11:33:31;;;;;;;5.15;2.70;;;;;;;7.59;100.00;100559.72;5004094;28;20069;-83
2023/03/03 11:36:36;;;;;;;6.32;3.80;;;;;;;8.09;100.00;100561.31;5021848;28;20033;-84